sensor_id;sensor_type;location;lat;lon;timestamp;P1;durP1;ratioP1;P2;durP2;ratioP2
71496;SDS011;59317;53.218;5.730;2022-12-18T00:00:09;106.57;;;38.97;;
71496;SDS011;59317;53.218;5.730;2022-12-18T00:02:35;80.68;;;32.00;;
71496;SDS011;59317;53.218;5.730;2022-12-18T00:05:01;90.00;;;34.77;;
71496;SDS011;59317;53.218;5.730;2022-12-18T00:07:27;89.53;;;35.97;;
71496;SDS011;59317;53.218;5.730;2022-12-18T00:09:53;102.57;;;35.25;;
71496;SDS011;59317;53.218;5.730;2022-12-18T00:12:19;108.25;;;36.85;;
71496;SDS011;59317;53.218;5.730;2022-12-18T00:14:45;62.75;;;22.85;;
71496;SDS011;59317;53.218;5.730;2022-12-18T00:17:11;55.83;;;23.10;;
71496;SDS011;59317;53.218;5.730;2022-12-18T00:19:37;73.25;;;29.27;;
71496;SDS011;59317;53.218;5.730;2022-12-18T00:22:03;73.83;;;27.20;;
71496;SDS011;59317;53.218;5.730;2022-12-18T00:24:31;114.90;;;43.25;;
71496;SDS011;59317;53.218;5.730;2022-12-18T00:26:59;126.65;;;41.45;;
71496;SDS011;59317;53.218;5.730;2022-12-18T00:29:25;88.00;;;33.42;;
71496;SDS011;59317;53.218;5.730;2022-12-18T00:31:51;113.07;;;40.05;;
71496;SDS011;59317;53.218;5.730;2022-12-18T00:34:17;79.77;;;29.53;;
71496;SDS011;59317;53.218;5.730;2022-12-18T00:36:43;94.43;;;32.53;;
71496;SDS011;59317;53.218;5.730;2022-12-18T00:39:10;121.15;;;41.20;;
71496;SDS011;59317;53.218;5.730;2022-12-18T00:41:37;119.60;;;42.38;;
71496;SDS011;59317;53.218;5.730;2022-12-18T00:44:22;87.18;;;33.70;;
71496;SDS011;59317;53.218;5.730;2022-12-18T00:46:48;78.97;;;29.05;;
71496;SDS011;59317;53.218;5.730;2022-12-18T00:49:15;82.18;;;30.92;;
71496;SDS011;59317;53.218;5.730;2022-12-18T00:51:41;106.20;;;39.53;;
71496;SDS011;59317;53.218;5.730;2022-12-18T00:54:07;119.57;;;40.07;;
71496;SDS011;59317;53.218;5.730;2022-12-18T00:56:34;125.50;;;41.87;;
71496;SDS011;59317;53.218;5.730;2022-12-18T00:59:01;97.95;;;34.63;;
71496;SDS011;59317;53.218;5.730;2022-12-18T01:01:27;85.47;;;31.77;;
71496;SDS011;59317;53.218;5.730;2022-12-18T01:03:52;124.07;;;44.67;;
71496;SDS011;59317;53.218;5.730;2022-12-18T01:06:18;73.40;;;28.38;;
71496;SDS011;59317;53.218;5.730;2022-12-18T01:08:45;93.53;;;32.35;;
71496;SDS011;59317;53.218;5.730;2022-12-18T01:11:12;109.35;;;38.70;;
71496;SDS011;59317;53.218;5.730;2022-12-18T01:13:38;110.13;;;37.05;;
71496;SDS011;59317;53.218;5.730;2022-12-18T01:16:05;117.22;;;39.58;;
71496;SDS011;59317;53.218;5.730;2022-12-18T01:18:40;78.93;;;29.63;;
71496;SDS011;59317;53.218;5.730;2022-12-18T01:21:10;83.40;;;32.33;;
71496;SDS011;59317;53.218;5.730;2022-12-18T01:23:40;73.68;;;28.70;;
71496;SDS011;59317;53.218;5.730;2022-12-18T01:26:07;80.93;;;28.95;;
71496;SDS011;59317;53.218;5.730;2022-12-18T01:28:33;85.80;;;33.28;;
71496;SDS011;59317;53.218;5.730;2022-12-18T01:31:09;118.05;;;37.85;;
71496;SDS011;59317;53.218;5.730;2022-12-18T01:33:35;106.80;;;33.40;;
71496;SDS011;59317;53.218;5.730;2022-12-18T01:36:01;111.93;;;37.97;;
71496;SDS011;59317;53.218;5.730;2022-12-18T01:38:44;103.78;;;37.78;;
71496;SDS011;59317;53.218;5.730;2022-12-18T01:41:13;93.03;;;31.90;;
71496;SDS011;59317;53.218;5.730;2022-12-18T01:43:56;107.00;;;35.38;;
71496;SDS011;59317;53.218;5.730;2022-12-18T01:46:26;78.57;;;29.83;;
71496;SDS011;59317;53.218;5.730;2022-12-18T01:48:54;79.57;;;29.30;;
71496;SDS011;59317;53.218;5.730;2022-12-18T01:51:22;62.30;;;22.20;;
71496;SDS011;59317;53.218;5.730;2022-12-18T01:53:51;62.33;;;24.13;;
71496;SDS011;59317;53.218;5.730;2022-12-18T01:56:20;66.20;;;26.83;;
71496;SDS011;59317;53.218;5.730;2022-12-18T02:01:19;60.05;;;23.85;;
71496;SDS011;59317;53.218;5.730;2022-12-18T02:03:45;54.15;;;21.45;;
71496;SDS011;59317;53.218;5.730;2022-12-18T02:06:27;57.45;;;23.17;;
71496;SDS011;59317;53.218;5.730;2022-12-18T02:09:07;64.63;;;24.83;;
71496;SDS011;59317;53.218;5.730;2022-12-18T02:14:38;82.85;;;32.10;;
71496;SDS011;59317;53.218;5.730;2022-12-18T02:17:23;72.63;;;26.50;;
71496;SDS011;59317;53.218;5.730;2022-12-18T02:25:19;88.95;;;31.52;;
71496;SDS011;59317;53.218;5.730;2022-12-18T02:27:47;88.82;;;29.05;;
71496;SDS011;59317;53.218;5.730;2022-12-18T02:30:15;90.22;;;31.67;;
71496;SDS011;59317;53.218;5.730;2022-12-18T02:32:43;84.97;;;30.25;;
71496;SDS011;59317;53.218;5.730;2022-12-18T02:35:13;81.78;;;30.27;;
71496;SDS011;59317;53.218;5.730;2022-12-18T02:37:39;76.90;;;27.52;;
71496;SDS011;59317;53.218;5.730;2022-12-18T02:40:07;81.90;;;28.97;;
71496;SDS011;59317;53.218;5.730;2022-12-18T02:42:34;53.42;;;20.27;;
71496;SDS011;59317;53.218;5.730;2022-12-18T02:45:00;37.85;;;15.43;;
71496;SDS011;59317;53.218;5.730;2022-12-18T02:47:28;71.20;;;27.07;;
71496;SDS011;59317;53.218;5.730;2022-12-18T02:49:58;65.70;;;24.45;;
71496;SDS011;59317;53.218;5.730;2022-12-18T02:55:05;53.80;;;20.23;;
71496;SDS011;59317;53.218;5.730;2022-12-18T03:00:06;57.38;;;22.30;;
71496;SDS011;59317;53.218;5.730;2022-12-18T03:05:07;55.23;;;19.37;;
71496;SDS011;59317;53.218;5.730;2022-12-18T03:07:41;70.63;;;24.13;;
71496;SDS011;59317;53.218;5.730;2022-12-18T03:10:08;91.80;;;30.48;;
71496;SDS011;59317;53.218;5.730;2022-12-18T03:12:37;62.50;;;22.97;;
71496;SDS011;59317;53.218;5.730;2022-12-18T03:17:30;38.03;;;15.35;;
71496;SDS011;59317;53.218;5.730;2022-12-18T03:19:57;45.25;;;18.08;;
71496;SDS011;59317;53.218;5.730;2022-12-18T03:22:24;86.25;;;30.00;;
71496;SDS011;59317;53.218;5.730;2022-12-18T03:24:53;48.28;;;20.45;;
71496;SDS011;59317;53.218;5.730;2022-12-18T03:27:20;45.13;;;17.98;;
71496;SDS011;59317;53.218;5.730;2022-12-18T03:30:06;44.70;;;17.08;;
71496;SDS011;59317;53.218;5.730;2022-12-18T03:32:36;87.57;;;29.63;;
71496;SDS011;59317;53.218;5.730;2022-12-18T03:35:04;91.88;;;29.33;;
71496;SDS011;59317;53.218;5.730;2022-12-18T03:37:31;66.00;;;23.33;;
71496;SDS011;59317;53.218;5.730;2022-12-18T03:39:57;70.47;;;24.98;;
71496;SDS011;59317;53.218;5.730;2022-12-18T03:45:03;55.38;;;20.75;;
71496;SDS011;59317;53.218;5.730;2022-12-18T03:52:51;67.22;;;23.08;;
71496;SDS011;59317;53.218;5.730;2022-12-18T03:55:22;73.45;;;23.08;;
71496;SDS011;59317;53.218;5.730;2022-12-18T03:57:49;61.47;;;19.95;;
71496;SDS011;59317;53.218;5.730;2022-12-18T04:00:17;61.53;;;21.57;;
71496;SDS011;59317;53.218;5.730;2022-12-18T04:02:54;47.90;;;16.95;;
71496;SDS011;59317;53.218;5.730;2022-12-18T04:05:21;100.55;;;30.40;;
71496;SDS011;59317;53.218;5.730;2022-12-18T04:07:48;80.28;;;25.38;;
71496;SDS011;59317;53.218;5.730;2022-12-18T04:10:17;77.20;;;24.83;;
71496;SDS011;59317;53.218;5.730;2022-12-18T04:12:55;58.53;;;19.48;;
71496;SDS011;59317;53.218;5.730;2022-12-18T04:15:30;42.00;;;16.08;;
71496;SDS011;59317;53.218;5.730;2022-12-18T04:17:57;64.18;;;21.30;;
71496;SDS011;59317;53.218;5.730;2022-12-18T04:20:23;56.50;;;19.40;;
71496;SDS011;59317;53.218;5.730;2022-12-18T04:22:49;70.13;;;22.77;;
71496;SDS011;59317;53.218;5.730;2022-12-18T04:25:15;57.47;;;19.30;;
71496;SDS011;59317;53.218;5.730;2022-12-18T04:27:50;55.67;;;20.20;;
71496;SDS011;59317;53.218;5.730;2022-12-18T04:30:16;76.10;;;24.23;;
71496;SDS011;59317;53.218;5.730;2022-12-18T04:32:42;50.88;;;17.77;;
71496;SDS011;59317;53.218;5.730;2022-12-18T04:35:18;73.90;;;24.67;;
71496;SDS011;59317;53.218;5.730;2022-12-18T04:37:44;76.53;;;23.92;;
71496;SDS011;59317;53.218;5.730;2022-12-18T04:40:10;78.97;;;24.02;;
71496;SDS011;59317;53.218;5.730;2022-12-18T04:42:36;83.63;;;27.33;;
71496;SDS011;59317;53.218;5.730;2022-12-18T04:45:02;76.00;;;25.88;;
71496;SDS011;59317;53.218;5.730;2022-12-18T04:47:28;43.10;;;16.88;;
71496;SDS011;59317;53.218;5.730;2022-12-18T04:49:54;42.78;;;14.93;;
71496;SDS011;59317;53.218;5.730;2022-12-18T04:52:33;41.30;;;16.88;;
71496;SDS011;59317;53.218;5.730;2022-12-18T04:54:59;52.67;;;20.92;;
71496;SDS011;59317;53.218;5.730;2022-12-18T04:57:25;46.83;;;18.38;;
71496;SDS011;59317;53.218;5.730;2022-12-18T04:59:51;34.40;;;14.83;;
71496;SDS011;59317;53.218;5.730;2022-12-18T05:02:17;35.03;;;14.90;;
71496;SDS011;59317;53.218;5.730;2022-12-18T05:04:52;43.22;;;16.98;;
71496;SDS011;59317;53.218;5.730;2022-12-18T05:07:21;50.58;;;19.77;;
71496;SDS011;59317;53.218;5.730;2022-12-18T05:09:47;56.72;;;21.27;;
71496;SDS011;59317;53.218;5.730;2022-12-18T05:12:13;58.80;;;22.13;;
71496;SDS011;59317;53.218;5.730;2022-12-18T05:14:39;62.15;;;23.95;;
71496;SDS011;59317;53.218;5.730;2022-12-18T05:17:05;43.47;;;16.60;;
71496;SDS011;59317;53.218;5.730;2022-12-18T05:19:31;56.93;;;20.27;;
71496;SDS011;59317;53.218;5.730;2022-12-18T05:22:09;42.28;;;17.08;;
71496;SDS011;59317;53.218;5.730;2022-12-18T05:24:35;52.03;;;20.73;;
71496;SDS011;59317;53.218;5.730;2022-12-18T05:27:08;43.67;;;15.23;;
71496;SDS011;59317;53.218;5.730;2022-12-18T05:29:34;70.95;;;26.45;;
71496;SDS011;59317;53.218;5.730;2022-12-18T05:32:00;82.87;;;28.90;;
71496;SDS011;59317;53.218;5.730;2022-12-18T05:34:26;75.40;;;28.40;;
71496;SDS011;59317;53.218;5.730;2022-12-18T05:36:52;42.83;;;18.35;;
71496;SDS011;59317;53.218;5.730;2022-12-18T05:39:18;59.47;;;23.48;;
71496;SDS011;59317;53.218;5.730;2022-12-18T05:41:44;59.03;;;22.30;;
71496;SDS011;59317;53.218;5.730;2022-12-18T05:44:10;74.07;;;28.65;;
71496;SDS011;59317;53.218;5.730;2022-12-18T05:46:36;66.13;;;25.43;;
71496;SDS011;59317;53.218;5.730;2022-12-18T05:49:02;53.63;;;21.00;;
71496;SDS011;59317;53.218;5.730;2022-12-18T05:51:28;68.82;;;26.55;;
71496;SDS011;59317;53.218;5.730;2022-12-18T05:54:03;57.67;;;22.40;;
71496;SDS011;59317;53.218;5.730;2022-12-18T05:56:50;41.35;;;17.38;;
71496;SDS011;59317;53.218;5.730;2022-12-18T05:59:15;53.00;;;21.15;;
71496;SDS011;59317;53.218;5.730;2022-12-18T06:01:54;51.20;;;20.23;;
71496;SDS011;59317;53.218;5.730;2022-12-18T06:04:20;58.78;;;21.23;;
71496;SDS011;59317;53.218;5.730;2022-12-18T06:06:46;31.50;;;12.40;;
71496;SDS011;59317;53.218;5.730;2022-12-18T06:09:12;37.17;;;14.45;;
71496;SDS011;59317;53.218;5.730;2022-12-18T06:11:38;36.47;;;13.63;;
71496;SDS011;59317;53.218;5.730;2022-12-18T06:14:05;46.65;;;19.52;;
71496;SDS011;59317;53.218;5.730;2022-12-18T06:16:31;44.10;;;17.48;;
71496;SDS011;59317;53.218;5.730;2022-12-18T06:19:01;31.52;;;13.90;;
71496;SDS011;59317;53.218;5.730;2022-12-18T06:21:28;46.97;;;19.55;;
71496;SDS011;59317;53.218;5.730;2022-12-18T06:23:54;29.30;;;12.27;;
71496;SDS011;59317;53.218;5.730;2022-12-18T06:26:24;26.60;;;12.52;;
71496;SDS011;59317;53.218;5.730;2022-12-18T06:28:50;21.60;;;9.87;;
71496;SDS011;59317;53.218;5.730;2022-12-18T06:31:16;28.23;;;12.10;;
71496;SDS011;59317;53.218;5.730;2022-12-18T06:33:43;27.52;;;12.80;;
71496;SDS011;59317;53.218;5.730;2022-12-18T06:36:10;27.65;;;12.18;;
71496;SDS011;59317;53.218;5.730;2022-12-18T06:38:38;28.55;;;13.35;;
71496;SDS011;59317;53.218;5.730;2022-12-18T06:41:08;23.17;;;10.23;;
71496;SDS011;59317;53.218;5.730;2022-12-18T06:43:34;29.45;;;13.73;;
71496;SDS011;59317;53.218;5.730;2022-12-18T06:46:01;25.57;;;12.30;;
71496;SDS011;59317;53.218;5.730;2022-12-18T06:48:28;28.60;;;13.38;;
71496;SDS011;59317;53.218;5.730;2022-12-18T06:50:54;31.63;;;13.23;;
71496;SDS011;59317;53.218;5.730;2022-12-18T06:53:20;36.13;;;14.73;;
71496;SDS011;59317;53.218;5.730;2022-12-18T06:55:46;30.58;;;12.98;;
71496;SDS011;59317;53.218;5.730;2022-12-18T06:58:12;35.70;;;16.38;;
71496;SDS011;59317;53.218;5.730;2022-12-18T07:00:38;31.77;;;14.38;;
71496;SDS011;59317;53.218;5.730;2022-12-18T07:03:04;29.63;;;13.65;;
71496;SDS011;59317;53.218;5.730;2022-12-18T07:05:30;29.37;;;13.57;;
71496;SDS011;59317;53.218;5.730;2022-12-18T07:07:57;26.20;;;12.10;;
71496;SDS011;59317;53.218;5.730;2022-12-18T07:10:23;37.47;;;18.00;;
71496;SDS011;59317;53.218;5.730;2022-12-18T07:12:49;25.00;;;11.33;;
71496;SDS011;59317;53.218;5.730;2022-12-18T07:15:15;28.85;;;13.40;;
71496;SDS011;59317;53.218;5.730;2022-12-18T07:17:41;22.70;;;10.02;;
71496;SDS011;59317;53.218;5.730;2022-12-18T07:20:07;25.85;;;10.55;;
71496;SDS011;59317;53.218;5.730;2022-12-18T07:22:33;25.33;;;10.95;;
71496;SDS011;59317;53.218;5.730;2022-12-18T07:25:03;25.08;;;12.13;;
71496;SDS011;59317;53.218;5.730;2022-12-18T07:27:36;28.13;;;11.32;;
71496;SDS011;59317;53.218;5.730;2022-12-18T07:30:02;23.13;;;10.43;;
71496;SDS011;59317;53.218;5.730;2022-12-18T07:32:28;22.10;;;9.50;;
71496;SDS011;59317;53.218;5.730;2022-12-18T07:34:55;28.70;;;14.23;;
71496;SDS011;59317;53.218;5.730;2022-12-18T07:37:21;24.92;;;11.27;;
71496;SDS011;59317;53.218;5.730;2022-12-18T07:39:50;21.17;;;9.75;;
71496;SDS011;59317;53.218;5.730;2022-12-18T07:42:16;19.57;;;9.53;;
71496;SDS011;59317;53.218;5.730;2022-12-18T07:44:58;23.00;;;10.60;;
71496;SDS011;59317;53.218;5.730;2022-12-18T07:47:25;19.13;;;9.52;;
71496;SDS011;59317;53.218;5.730;2022-12-18T07:49:51;22.00;;;10.38;;
71496;SDS011;59317;53.218;5.730;2022-12-18T07:52:17;27.08;;;11.15;;
71496;SDS011;59317;53.218;5.730;2022-12-18T07:54:52;22.73;;;11.38;;
71496;SDS011;59317;53.218;5.730;2022-12-18T07:57:18;22.42;;;10.77;;
71496;SDS011;59317;53.218;5.730;2022-12-18T07:59:45;20.15;;;9.40;;
71496;SDS011;59317;53.218;5.730;2022-12-18T08:02:11;20.38;;;10.13;;
71496;SDS011;59317;53.218;5.730;2022-12-18T08:04:37;20.70;;;9.25;;
71496;SDS011;59317;53.218;5.730;2022-12-18T08:07:03;19.15;;;8.30;;
71496;SDS011;59317;53.218;5.730;2022-12-18T08:09:40;18.50;;;8.87;;
71496;SDS011;59317;53.218;5.730;2022-12-18T08:12:11;18.60;;;9.20;;
71496;SDS011;59317;53.218;5.730;2022-12-18T08:14:37;21.55;;;10.65;;
71496;SDS011;59317;53.218;5.730;2022-12-18T08:17:06;16.85;;;8.30;;
71496;SDS011;59317;53.218;5.730;2022-12-18T08:19:34;19.60;;;9.00;;
71496;SDS011;59317;53.218;5.730;2022-12-18T08:22:10;21.77;;;11.73;;
71496;SDS011;59317;53.218;5.730;2022-12-18T08:24:36;19.55;;;9.40;;
71496;SDS011;59317;53.218;5.730;2022-12-18T08:27:02;22.27;;;11.03;;
71496;SDS011;59317;53.218;5.730;2022-12-18T08:29:28;17.50;;;9.40;;
71496;SDS011;59317;53.218;5.730;2022-12-18T08:31:55;26.02;;;11.38;;
71496;SDS011;59317;53.218;5.730;2022-12-18T08:34:31;19.75;;;9.65;;
71496;SDS011;59317;53.218;5.730;2022-12-18T08:36:57;25.20;;;11.20;;
71496;SDS011;59317;53.218;5.730;2022-12-18T08:39:24;18.05;;;9.82;;
71496;SDS011;59317;53.218;5.730;2022-12-18T08:41:50;20.33;;;8.98;;
71496;SDS011;59317;53.218;5.730;2022-12-18T08:44:34;21.92;;;10.80;;
71496;SDS011;59317;53.218;5.730;2022-12-18T08:47:03;19.38;;;10.52;;
71496;SDS011;59317;53.218;5.730;2022-12-18T08:49:29;21.02;;;12.20;;
71496;SDS011;59317;53.218;5.730;2022-12-18T08:52:02;17.55;;;8.43;;
71496;SDS011;59317;53.218;5.730;2022-12-18T08:54:28;16.08;;;9.00;;
71496;SDS011;59317;53.218;5.730;2022-12-18T08:57:06;17.95;;;9.30;;
71496;SDS011;59317;53.218;5.730;2022-12-18T08:59:36;15.23;;;8.60;;
71496;SDS011;59317;53.218;5.730;2022-12-18T09:02:02;16.25;;;9.30;;
71496;SDS011;59317;53.218;5.730;2022-12-18T09:04:28;19.20;;;10.40;;
71496;SDS011;59317;53.218;5.730;2022-12-18T09:06:58;17.75;;;9.80;;
71496;SDS011;59317;53.218;5.730;2022-12-18T09:09:24;15.00;;;8.02;;
71496;SDS011;59317;53.218;5.730;2022-12-18T09:11:50;16.83;;;9.57;;
71496;SDS011;59317;53.218;5.730;2022-12-18T09:14:25;17.10;;;9.07;;
71496;SDS011;59317;53.218;5.730;2022-12-18T09:16:51;15.88;;;8.30;;
71496;SDS011;59317;53.218;5.730;2022-12-18T09:19:19;13.32;;;8.18;;
71496;SDS011;59317;53.218;5.730;2022-12-18T09:21:45;15.57;;;9.23;;
71496;SDS011;59317;53.218;5.730;2022-12-18T09:24:27;19.50;;;10.63;;
71496;SDS011;59317;53.218;5.730;2022-12-18T09:26:53;16.27;;;9.00;;
71496;SDS011;59317;53.218;5.730;2022-12-18T09:29:34;21.57;;;11.70;;
71496;SDS011;59317;53.218;5.730;2022-12-18T09:32:00;15.23;;;9.07;;
71496;SDS011;59317;53.218;5.730;2022-12-18T09:34:26;21.92;;;11.90;;
71496;SDS011;59317;53.218;5.730;2022-12-18T09:36:52;16.92;;;9.38;;
71496;SDS011;59317;53.218;5.730;2022-12-18T09:39:18;19.88;;;10.98;;
71496;SDS011;59317;53.218;5.730;2022-12-18T09:41:45;21.95;;;12.52;;
71496;SDS011;59317;53.218;5.730;2022-12-18T09:46:45;20.48;;;11.95;;
71496;SDS011;59317;53.218;5.730;2022-12-18T09:49:14;19.08;;;10.45;;
71496;SDS011;59317;53.218;5.730;2022-12-18T09:54:12;18.90;;;9.93;;
71496;SDS011;59317;53.218;5.730;2022-12-18T09:56:40;14.85;;;8.18;;
71496;SDS011;59317;53.218;5.730;2022-12-18T09:59:09;16.85;;;8.73;;
71496;SDS011;59317;53.218;5.730;2022-12-18T10:01:39;16.77;;;9.65;;
71496;SDS011;59317;53.218;5.730;2022-12-18T10:04:07;14.30;;;8.33;;
71496;SDS011;59317;53.218;5.730;2022-12-18T10:09:06;18.00;;;10.18;;
71496;SDS011;59317;53.218;5.730;2022-12-18T10:11:40;16.03;;;8.83;;
71496;SDS011;59317;53.218;5.730;2022-12-18T10:16:54;18.60;;;10.23;;
71496;SDS011;59317;53.218;5.730;2022-12-18T10:21:58;14.95;;;8.45;;
71496;SDS011;59317;53.218;5.730;2022-12-18T10:24:36;16.27;;;8.50;;
71496;SDS011;59317;53.218;5.730;2022-12-18T10:27:21;13.85;;;8.23;;
71496;SDS011;59317;53.218;5.730;2022-12-18T10:29:48;15.60;;;10.15;;
71496;SDS011;59317;53.218;5.730;2022-12-18T10:32:20;12.45;;;7.57;;
71496;SDS011;59317;53.218;5.730;2022-12-18T10:34:55;15.70;;;8.93;;
71496;SDS011;59317;53.218;5.730;2022-12-18T10:37:25;14.00;;;8.90;;
71496;SDS011;59317;53.218;5.730;2022-12-18T10:42:33;14.82;;;8.05;;
71496;SDS011;59317;53.218;5.730;2022-12-18T10:45:09;11.98;;;7.70;;
71496;SDS011;59317;53.218;5.730;2022-12-18T10:47:36;13.00;;;7.78;;
71496;SDS011;59317;53.218;5.730;2022-12-18T10:50:02;12.57;;;8.13;;
71496;SDS011;59317;53.218;5.730;2022-12-18T10:52:29;10.80;;;7.03;;
71496;SDS011;59317;53.218;5.730;2022-12-18T10:54:55;12.35;;;6.80;;
71496;SDS011;59317;53.218;5.730;2022-12-18T10:59:53;11.52;;;7.20;;
71496;SDS011;59317;53.218;5.730;2022-12-18T11:02:36;12.67;;;7.50;;
71496;SDS011;59317;53.218;5.730;2022-12-18T11:05:02;10.43;;;7.15;;
71496;SDS011;59317;53.218;5.730;2022-12-18T11:07:46;12.45;;;8.65;;
71496;SDS011;59317;53.218;5.730;2022-12-18T11:10:15;14.50;;;7.75;;
71496;SDS011;59317;53.218;5.730;2022-12-18T11:12:45;9.82;;;6.88;;
71496;SDS011;59317;53.218;5.730;2022-12-18T11:15:15;11.82;;;7.47;;
71496;SDS011;59317;53.218;5.730;2022-12-18T11:17:42;10.88;;;7.03;;
71496;SDS011;59317;53.218;5.730;2022-12-18T11:20:23;9.57;;;6.43;;
71496;SDS011;59317;53.218;5.730;2022-12-18T11:23:11;11.15;;;6.68;;
71496;SDS011;59317;53.218;5.730;2022-12-18T11:25:38;11.73;;;7.45;;
71496;SDS011;59317;53.218;5.730;2022-12-18T11:28:06;11.02;;;6.93;;
71496;SDS011;59317;53.218;5.730;2022-12-18T11:30:54;13.88;;;7.45;;
71496;SDS011;59317;53.218;5.730;2022-12-18T11:33:38;10.90;;;7.30;;
71496;SDS011;59317;53.218;5.730;2022-12-18T11:36:04;10.82;;;6.57;;
71496;SDS011;59317;53.218;5.730;2022-12-18T11:38:40;10.35;;;6.65;;
71496;SDS011;59317;53.218;5.730;2022-12-18T11:44:11;10.43;;;6.43;;
71496;SDS011;59317;53.218;5.730;2022-12-18T11:46:41;13.95;;;7.38;;
71496;SDS011;59317;53.218;5.730;2022-12-18T11:49:20;12.05;;;7.20;;
71496;SDS011;59317;53.218;5.730;2022-12-18T11:51:49;11.27;;;7.17;;
71496;SDS011;59317;53.218;5.730;2022-12-18T11:54:16;10.20;;;7.13;;
71496;SDS011;59317;53.218;5.730;2022-12-18T11:56:49;12.45;;;7.65;;
71496;SDS011;59317;53.218;5.730;2022-12-18T11:59:33;11.13;;;7.38;;
71496;SDS011;59317;53.218;5.730;2022-12-18T12:09:56;12.15;;;7.53;;
71496;SDS011;59317;53.218;5.730;2022-12-18T12:12:27;11.10;;;7.53;;
71496;SDS011;59317;53.218;5.730;2022-12-18T12:17:38;13.13;;;8.13;;
71496;SDS011;59317;53.218;5.730;2022-12-18T12:27:58;12.70;;;8.63;;
71496;SDS011;59317;53.218;5.730;2022-12-18T12:35:54;12.65;;;8.80;;
71496;SDS011;59317;53.218;5.730;2022-12-18T12:38:24;13.55;;;9.02;;
71496;SDS011;59317;53.218;5.730;2022-12-18T12:40:52;11.88;;;7.55;;
71496;SDS011;59317;53.218;5.730;2022-12-18T12:43:28;13.35;;;8.43;;
71496;SDS011;59317;53.218;5.730;2022-12-18T12:46:04;10.60;;;7.68;;
71496;SDS011;59317;53.218;5.730;2022-12-18T12:48:32;13.40;;;9.32;;
71496;SDS011;59317;53.218;5.730;2022-12-18T12:51:00;13.23;;;9.30;;
71496;SDS011;59317;53.218;5.730;2022-12-18T12:53:34;13.25;;;8.30;;
71496;SDS011;59317;53.218;5.730;2022-12-18T12:56:01;11.25;;;7.70;;
71496;SDS011;59317;53.218;5.730;2022-12-18T13:01:18;10.97;;;6.77;;
71496;SDS011;59317;53.218;5.730;2022-12-18T13:03:57;12.53;;;7.23;;
71496;SDS011;59317;53.218;5.730;2022-12-18T13:06:36;12.40;;;8.02;;
71496;SDS011;59317;53.218;5.730;2022-12-18T13:09:04;11.38;;;6.90;;
71496;SDS011;59317;53.218;5.730;2022-12-18T13:14:29;9.32;;;5.95;;
71496;SDS011;59317;53.218;5.730;2022-12-18T13:19:40;9.90;;;6.28;;
71496;SDS011;59317;53.218;5.730;2022-12-18T13:22:19;9.00;;;5.68;;
71496;SDS011;59317;53.218;5.730;2022-12-18T13:24:48;10.60;;;6.45;;
71496;SDS011;59317;53.218;5.730;2022-12-18T13:29:58;9.15;;;6.07;;
71496;SDS011;59317;53.218;5.730;2022-12-18T13:32:25;10.05;;;5.85;;
71496;SDS011;59317;53.218;5.730;2022-12-18T13:37:40;12.48;;;8.10;;
71496;SDS011;59317;53.218;5.730;2022-12-18T13:42:51;11.50;;;7.03;;
71496;SDS011;59317;53.218;5.730;2022-12-18T13:45:43;8.98;;;6.65;;
71496;SDS011;59317;53.218;5.730;2022-12-18T13:48:17;9.87;;;6.27;;
71496;SDS011;59317;53.218;5.730;2022-12-18T13:50:51;10.25;;;6.80;;
71496;SDS011;59317;53.218;5.730;2022-12-18T13:53:20;11.38;;;6.28;;
71496;SDS011;59317;53.218;5.730;2022-12-18T13:55:47;11.23;;;6.88;;
71496;SDS011;59317;53.218;5.730;2022-12-18T13:58:13;9.10;;;6.43;;
71496;SDS011;59317;53.218;5.730;2022-12-18T14:00:42;9.35;;;6.07;;
71496;SDS011;59317;53.218;5.730;2022-12-18T14:03:19;10.45;;;6.43;;
71496;SDS011;59317;53.218;5.730;2022-12-18T14:05:45;8.82;;;6.13;;
71496;SDS011;59317;53.218;5.730;2022-12-18T14:08:14;11.07;;;5.95;;
71496;SDS011;59317;53.218;5.730;2022-12-18T14:10:41;10.20;;;7.25;;
71496;SDS011;59317;53.218;5.730;2022-12-18T14:13:08;8.90;;;5.82;;
71496;SDS011;59317;53.218;5.730;2022-12-18T14:15:44;8.73;;;5.72;;
71496;SDS011;59317;53.218;5.730;2022-12-18T14:20:48;10.52;;;6.90;;
71496;SDS011;59317;53.218;5.730;2022-12-18T14:23:27;10.68;;;6.35;;
71496;SDS011;59317;53.218;5.730;2022-12-18T14:25:54;8.68;;;5.55;;
71496;SDS011;59317;53.218;5.730;2022-12-18T14:28:20;10.00;;;6.88;;
71496;SDS011;59317;53.218;5.730;2022-12-18T14:30:47;8.23;;;5.70;;
71496;SDS011;59317;53.218;5.730;2022-12-18T14:33:20;8.63;;;5.97;;
71496;SDS011;59317;53.218;5.730;2022-12-18T14:35:59;10.45;;;7.40;;
71496;SDS011;59317;53.218;5.730;2022-12-18T14:41:01;9.33;;;5.93;;
71496;SDS011;59317;53.218;5.730;2022-12-18T14:43:28;8.43;;;5.75;;
71496;SDS011;59317;53.218;5.730;2022-12-18T14:45:55;9.13;;;5.63;;
71496;SDS011;59317;53.218;5.730;2022-12-18T14:48:24;8.60;;;5.70;;
71496;SDS011;59317;53.218;5.730;2022-12-18T14:50:57;8.23;;;5.38;;
71496;SDS011;59317;53.218;5.730;2022-12-18T14:53:28;7.50;;;5.37;;
71496;SDS011;59317;53.218;5.730;2022-12-18T14:55:57;8.88;;;5.95;;
71496;SDS011;59317;53.218;5.730;2022-12-18T14:58:23;7.60;;;4.70;;
71496;SDS011;59317;53.218;5.730;2022-12-18T15:00:49;7.38;;;4.45;;
71496;SDS011;59317;53.218;5.730;2022-12-18T15:03:20;7.90;;;5.10;;
71496;SDS011;59317;53.218;5.730;2022-12-18T15:05:46;8.10;;;4.80;;
71496;SDS011;59317;53.218;5.730;2022-12-18T15:13:52;7.73;;;4.80;;
71496;SDS011;59317;53.218;5.730;2022-12-18T15:16:18;9.15;;;5.40;;
71496;SDS011;59317;53.218;5.730;2022-12-18T15:18:44;9.38;;;6.22;;
71496;SDS011;59317;53.218;5.730;2022-12-18T15:21:15;8.77;;;5.55;;
71496;SDS011;59317;53.218;5.730;2022-12-18T15:23:46;7.22;;;4.82;;
71496;SDS011;59317;53.218;5.730;2022-12-18T15:26:13;9.38;;;5.47;;
71496;SDS011;59317;53.218;5.730;2022-12-18T15:28:44;9.38;;;6.60;;
71496;SDS011;59317;53.218;5.730;2022-12-18T15:33:43;8.55;;;5.70;;
71496;SDS011;59317;53.218;5.730;2022-12-18T15:36:17;8.70;;;5.65;;
71496;SDS011;59317;53.218;5.730;2022-12-18T15:38:46;9.30;;;6.00;;
71496;SDS011;59317;53.218;5.730;2022-12-18T15:41:13;9.38;;;6.10;;
71496;SDS011;59317;53.218;5.730;2022-12-18T15:43:40;10.10;;;6.85;;
71496;SDS011;59317;53.218;5.730;2022-12-18T15:46:11;8.77;;;6.38;;
71496;SDS011;59317;53.218;5.730;2022-12-18T15:48:41;8.50;;;5.50;;
71496;SDS011;59317;53.218;5.730;2022-12-18T15:51:18;8.00;;;5.53;;
71496;SDS011;59317;53.218;5.730;2022-12-18T15:53:45;8.02;;;5.10;;
71496;SDS011;59317;53.218;5.730;2022-12-18T15:56:12;8.67;;;6.10;;
71496;SDS011;59317;53.218;5.730;2022-12-18T15:58:57;10.27;;;6.45;;
71496;SDS011;59317;53.218;5.730;2022-12-18T16:01:25;9.07;;;5.85;;
71496;SDS011;59317;53.218;5.730;2022-12-18T16:03:52;8.85;;;6.25;;
71496;SDS011;59317;53.218;5.730;2022-12-18T16:06:18;8.87;;;6.50;;
71496;SDS011;59317;53.218;5.730;2022-12-18T16:08:44;8.57;;;6.25;;
71496;SDS011;59317;53.218;5.730;2022-12-18T16:11:19;9.90;;;5.88;;
71496;SDS011;59317;53.218;5.730;2022-12-18T16:16:46;10.30;;;6.78;;
71496;SDS011;59317;53.218;5.730;2022-12-18T16:19:12;9.88;;;6.85;;
71496;SDS011;59317;53.218;5.730;2022-12-18T16:21:38;10.25;;;7.18;;
71496;SDS011;59317;53.218;5.730;2022-12-18T16:24:05;9.82;;;6.20;;
71496;SDS011;59317;53.218;5.730;2022-12-18T16:26:31;11.05;;;7.22;;